sensor_id;sensor_type;location;lat;lon;timestamp;P1;durP1;ratioP1;P2;durP2;ratioP2
4963;SDS011;2497;47.410;9.740;2023-02-24T00:01:01;10.80;;;3.30;;
4963;SDS011;2497;47.410;9.740;2023-02-24T00:03:36;9.97;;;3.50;;
4963;SDS011;2497;47.410;9.740;2023-02-24T00:06:09;11.43;;;3.33;;
4963;SDS011;2497;47.410;9.740;2023-02-24T00:08:37;8.80;;;4.00;;
4963;SDS011;2497;47.410;9.740;2023-02-24T00:11:07;16.20;;;3.83;;
4963;SDS011;2497;47.410;9.740;2023-02-24T00:13:35;8.47;;;3.03;;
4963;SDS011;2497;47.410;9.740;2023-02-24T00:16:04;5.73;;;3.10;;
4963;SDS011;2497;47.410;9.740;2023-02-24T00:18:34;7.37;;;3.53;;
4963;SDS011;2497;47.410;9.740;2023-02-24T00:21:02;10.93;;;4.00;;
4963;SDS011;2497;47.410;9.740;2023-02-24T00:23:32;9.13;;;3.67;;
4963;SDS011;2497;47.410;9.740;2023-02-24T00:26:01;6.90;;;4.00;;
4963;SDS011;2497;47.410;9.740;2023-02-24T00:28:29;9.37;;;4.40;;
4963;SDS011;2497;47.410;9.740;2023-02-24T00:31:00;7.17;;;3.37;;
4963;SDS011;2497;47.410;9.740;2023-02-24T00:33:31;8.30;;;3.20;;
4963;SDS011;2497;47.410;9.740;2023-02-24T00:36:07;10.50;;;3.73;;
4963;SDS011;2497;47.410;9.740;2023-02-24T00:38:36;14.30;;;4.63;;
4963;SDS011;2497;47.410;9.740;2023-02-24T00:41:07;11.03;;;3.87;;
4963;SDS011;2497;47.410;9.740;2023-02-24T00:43:38;13.10;;;3.80;;
4963;SDS011;2497;47.410;9.740;2023-02-24T00:46:11;13.83;;;3.53;;
4963;SDS011;2497;47.410;9.740;2023-02-24T00:48:43;6.07;;;3.60;;
4963;SDS011;2497;47.410;9.740;2023-02-24T00:51:11;10.80;;;3.93;;
4963;SDS011;2497;47.410;9.740;2023-02-24T00:53:40;12.07;;;3.93;;
4963;SDS011;2497;47.410;9.740;2023-02-24T00:56:08;9.30;;;3.70;;
4963;SDS011;2497;47.410;9.740;2023-02-24T00:58:37;11.57;;;4.90;;
4963;SDS011;2497;47.410;9.740;2023-02-24T01:01:09;14.23;;;4.37;;
4963;SDS011;2497;47.410;9.740;2023-02-24T01:03:38;17.20;;;4.40;;
4963;SDS011;2497;47.410;9.740;2023-02-24T01:06:06;15.80;;;4.00;;
4963;SDS011;2497;47.410;9.740;2023-02-24T01:08:34;11.73;;;3.50;;
4963;SDS011;2497;47.410;9.740;2023-02-24T01:11:04;11.83;;;3.50;;
4963;SDS011;2497;47.410;9.740;2023-02-24T01:13:49;8.50;;;4.00;;
4963;SDS011;2497;47.410;9.740;2023-02-24T01:16:17;6.90;;;3.37;;
4963;SDS011;2497;47.410;9.740;2023-02-24T01:18:44;10.20;;;3.57;;
4963;SDS011;2497;47.410;9.740;2023-02-24T01:21:14;12.07;;;3.80;;
4963;SDS011;2497;47.410;9.740;2023-02-24T01:23:45;5.50;;;3.60;;
4963;SDS011;2497;47.410;9.740;2023-02-24T01:26:14;8.63;;;3.40;;
4963;SDS011;2497;47.410;9.740;2023-02-24T01:28:41;8.40;;;3.77;;
4963;SDS011;2497;47.410;9.740;2023-02-24T01:31:11;4.73;;;2.70;;
4963;SDS011;2497;47.410;9.740;2023-02-24T01:33:41;10.03;;;3.93;;
4963;SDS011;2497;47.410;9.740;2023-02-24T01:36:10;12.40;;;3.30;;
4963;SDS011;2497;47.410;9.740;2023-02-24T01:38:40;18.77;;;3.30;;
4963;SDS011;2497;47.410;9.740;2023-02-24T01:41:08;5.10;;;3.27;;
4963;SDS011;2497;47.410;9.740;2023-02-24T01:44:00;7.00;;;3.27;;
4963;SDS011;2497;47.410;9.740;2023-02-24T01:46:30;7.70;;;3.20;;
4963;SDS011;2497;47.410;9.740;2023-02-24T01:48:59;15.03;;;3.47;;
4963;SDS011;2497;47.410;9.740;2023-02-24T01:51:33;9.67;;;3.87;;
4963;SDS011;2497;47.410;9.740;2023-02-24T01:54:07;11.03;;;4.40;;
4963;SDS011;2497;47.410;9.740;2023-02-24T01:56:37;11.53;;;5.10;;
4963;SDS011;2497;47.410;9.740;2023-02-24T01:59:06;9.70;;;4.60;;
4963;SDS011;2497;47.410;9.740;2023-02-24T02:01:36;9.93;;;4.57;;
4963;SDS011;2497;47.410;9.740;2023-02-24T02:04:08;11.00;;;4.37;;
4963;SDS011;2497;47.410;9.740;2023-02-24T02:06:42;10.80;;;3.97;;
4963;SDS011;2497;47.410;9.740;2023-02-24T02:09:12;11.30;;;3.30;;
4963;SDS011;2497;47.410;9.740;2023-02-24T02:11:40;12.20;;;2.97;;
4963;SDS011;2497;47.410;9.740;2023-02-24T02:14:13;14.80;;;4.23;;
4963;SDS011;2497;47.410;9.740;2023-02-24T02:16:51;8.23;;;2.70;;
4963;SDS011;2497;47.410;9.740;2023-02-24T02:22:53;14.57;;;4.07;;
4963;SDS011;2497;47.410;9.740;2023-02-24T02:25:36;4.70;;;2.87;;
4963;SDS011;2497;47.410;9.740;2023-02-24T02:31:18;13.63;;;3.17;;
4963;SDS011;2497;47.410;9.740;2023-02-24T02:36:51;10.13;;;3.93;;
4963;SDS011;2497;47.410;9.740;2023-02-24T02:39:25;13.10;;;4.60;;
4963;SDS011;2497;47.410;9.740;2023-02-24T02:42:02;11.90;;;4.90;;
4963;SDS011;2497;47.410;9.740;2023-02-24T02:44:41;8.30;;;4.10;;
4963;SDS011;2497;47.410;9.740;2023-02-24T02:47:21;11.43;;;4.30;;
4963;SDS011;2497;47.410;9.740;2023-02-24T02:49:55;11.90;;;4.20;;
4963;SDS011;2497;47.410;9.740;2023-02-24T02:52:28;11.63;;;4.33;;
4963;SDS011;2497;47.410;9.740;2023-02-24T02:54:59;22.50;;;4.27;;
4963;SDS011;2497;47.410;9.740;2023-02-24T02:57:33;6.13;;;3.93;;
4963;SDS011;2497;47.410;9.740;2023-02-24T03:00:03;13.77;;;4.93;;
4963;SDS011;2497;47.410;9.740;2023-02-24T03:02:37;10.40;;;5.07;;
4963;SDS011;2497;47.410;9.740;2023-02-24T03:05:10;14.10;;;4.77;;
4963;SDS011;2497;47.410;9.740;2023-02-24T03:07:42;15.30;;;4.40;;
4963;SDS011;2497;47.410;9.740;2023-02-24T03:10:15;13.83;;;4.00;;
4963;SDS011;2497;47.410;9.740;2023-02-24T03:12:46;7.40;;;3.80;;
4963;SDS011;2497;47.410;9.740;2023-02-24T03:15:17;10.47;;;3.87;;
4963;SDS011;2497;47.410;9.740;2023-02-24T03:17:48;9.77;;;4.20;;
4963;SDS011;2497;47.410;9.740;2023-02-24T03:20:23;6.60;;;3.60;;
4963;SDS011;2497;47.410;9.740;2023-02-24T03:22:55;8.97;;;3.33;;
4963;SDS011;2497;47.410;9.740;2023-02-24T03:25:27;13.00;;;3.97;;
4963;SDS011;2497;47.410;9.740;2023-02-24T03:28:05;9.93;;;3.70;;
4963;SDS011;2497;47.410;9.740;2023-02-24T03:30:42;12.03;;;4.10;;
4963;SDS011;2497;47.410;9.740;2023-02-24T03:33:13;8.43;;;3.30;;
4963;SDS011;2497;47.410;9.740;2023-02-24T03:35:46;18.67;;;3.40;;
4963;SDS011;2497;47.410;9.740;2023-02-24T03:38:16;11.20;;;3.43;;
4963;SDS011;2497;47.410;9.740;2023-02-24T03:40:44;9.50;;;3.73;;
4963;SDS011;2497;47.410;9.740;2023-02-24T03:43:13;7.60;;;3.30;;
4963;SDS011;2497;47.410;9.740;2023-02-24T03:45:44;8.77;;;3.07;;
4963;SDS011;2497;47.410;9.740;2023-02-24T03:48:12;7.83;;;4.10;;
4963;SDS011;2497;47.410;9.740;2023-02-24T03:50:41;6.57;;;3.00;;
4963;SDS011;2497;47.410;9.740;2023-02-24T03:53:19;27.47;;;3.90;;
4963;SDS011;2497;47.410;9.740;2023-02-24T03:55:57;8.37;;;3.27;;
4963;SDS011;2497;47.410;9.740;2023-02-24T03:58:33;6.30;;;3.93;;
4963;SDS011;2497;47.410;9.740;2023-02-24T04:01:09;8.30;;;3.33;;
4963;SDS011;2497;47.410;9.740;2023-02-24T04:03:45;9.97;;;3.60;;
4963;SDS011;2497;47.410;9.740;2023-02-24T04:06:24;8.27;;;2.83;;
4963;SDS011;2497;47.410;9.740;2023-02-24T04:09:02;6.10;;;3.50;;
4963;SDS011;2497;47.410;9.740;2023-02-24T04:11:38;5.63;;;3.20;;
4963;SDS011;2497;47.410;9.740;2023-02-24T04:14:11;7.23;;;3.47;;
4963;SDS011;2497;47.410;9.740;2023-02-24T04:16:49;16.40;;;4.37;;
4963;SDS011;2497;47.410;9.740;2023-02-24T04:19:27;11.70;;;4.03;;
4963;SDS011;2497;47.410;9.740;2023-02-24T04:21:57;14.93;;;4.20;;
4963;SDS011;2497;47.410;9.740;2023-02-24T04:24:27;11.20;;;4.40;;
4963;SDS011;2497;47.410;9.740;2023-02-24T04:26:56;9.53;;;3.43;;
4963;SDS011;2497;47.410;9.740;2023-02-24T04:29:27;13.17;;;4.10;;
4963;SDS011;2497;47.410;9.740;2023-02-24T04:32:01;9.27;;;4.07;;
4963;SDS011;2497;47.410;9.740;2023-02-24T04:34:31;12.43;;;3.97;;
4963;SDS011;2497;47.410;9.740;2023-02-24T04:36:58;10.50;;;5.10;;
4963;SDS011;2497;47.410;9.740;2023-02-24T04:39:28;10.40;;;4.77;;
4963;SDS011;2497;47.410;9.740;2023-02-24T04:41:56;12.67;;;5.50;;
4963;SDS011;2497;47.410;9.740;2023-02-24T04:44:25;10.63;;;3.70;;
4963;SDS011;2497;47.410;9.740;2023-02-24T04:46:53;8.43;;;4.40;;
4963;SDS011;2497;47.410;9.740;2023-02-24T04:49:21;9.67;;;4.50;;
4963;SDS011;2497;47.410;9.740;2023-02-24T04:51:48;13.70;;;4.90;;
4963;SDS011;2497;47.410;9.740;2023-02-24T04:54:16;12.47;;;5.03;;
4963;SDS011;2497;47.410;9.740;2023-02-24T04:56:46;8.10;;;4.73;;
4963;SDS011;2497;47.410;9.740;2023-02-24T04:59:15;10.63;;;4.70;;
4963;SDS011;2497;47.410;9.740;2023-02-24T05:01:43;12.50;;;4.47;;
4963;SDS011;2497;47.410;9.740;2023-02-24T05:04:11;10.40;;;4.30;;
4963;SDS011;2497;47.410;9.740;2023-02-24T05:06:39;14.57;;;4.63;;
4963;SDS011;2497;47.410;9.740;2023-02-24T05:09:08;9.03;;;5.23;;
4963;SDS011;2497;47.410;9.740;2023-02-24T05:11:38;23.37;;;6.30;;
4963;SDS011;2497;47.410;9.740;2023-02-24T05:14:09;13.57;;;5.67;;
4963;SDS011;2497;47.410;9.740;2023-02-24T05:16:39;14.40;;;5.40;;
4963;SDS011;2497;47.410;9.740;2023-02-24T05:19:08;8.93;;;5.00;;
4963;SDS011;2497;47.410;9.740;2023-02-24T05:21:58;15.13;;;5.13;;
4963;SDS011;2497;47.410;9.740;2023-02-24T05:24:27;17.80;;;5.50;;
4963;SDS011;2497;47.410;9.740;2023-02-24T05:26:54;9.80;;;4.93;;
4963;SDS011;2497;47.410;9.740;2023-02-24T05:29:25;16.67;;;5.60;;
4963;SDS011;2497;47.410;9.740;2023-02-24T05:31:53;9.57;;;5.17;;
4963;SDS011;2497;47.410;9.740;2023-02-24T05:34:23;9.30;;;4.40;;
4963;SDS011;2497;47.410;9.740;2023-02-24T05:36:51;8.23;;;4.53;;
4963;SDS011;2497;47.410;9.740;2023-02-24T05:39:18;10.10;;;4.63;;
4963;SDS011;2497;47.410;9.740;2023-02-24T05:41:46;9.63;;;4.60;;
4963;SDS011;2497;47.410;9.740;2023-02-24T05:44:15;12.37;;;5.50;;
4963;SDS011;2497;47.410;9.740;2023-02-24T05:46:48;12.13;;;5.80;;
4963;SDS011;2497;47.410;9.740;2023-02-24T05:49:22;9.43;;;5.83;;
4963;SDS011;2497;47.410;9.740;2023-02-24T05:51:52;14.97;;;5.77;;
4963;SDS011;2497;47.410;9.740;2023-02-24T05:54:22;20.10;;;5.77;;
4963;SDS011;2497;47.410;9.740;2023-02-24T05:56:53;8.80;;;5.20;;
4963;SDS011;2497;47.410;9.740;2023-02-24T05:59:22;14.27;;;5.70;;
4963;SDS011;2497;47.410;9.740;2023-02-24T06:01:51;12.40;;;5.47;;
4963;SDS011;2497;47.410;9.740;2023-02-24T06:04:18;8.50;;;5.47;;
4963;SDS011;2497;47.410;9.740;2023-02-24T06:07:03;20.73;;;5.70;;
4963;SDS011;2497;47.410;9.740;2023-02-24T06:09:31;12.17;;;5.23;;
4963;SDS011;2497;47.410;9.740;2023-02-24T06:12:04;17.43;;;5.97;;
4963;SDS011;2497;47.410;9.740;2023-02-24T06:14:32;12.93;;;5.77;;
4963;SDS011;2497;47.410;9.740;2023-02-24T06:17:00;11.30;;;5.67;;
4963;SDS011;2497;47.410;9.740;2023-02-24T06:19:28;12.63;;;5.63;;
4963;SDS011;2497;47.410;9.740;2023-02-24T06:21:58;16.00;;;6.70;;
4963;SDS011;2497;47.410;9.740;2023-02-24T06:24:26;14.00;;;7.10;;
4963;SDS011;2497;47.410;9.740;2023-02-24T06:26:55;23.20;;;6.40;;
4963;SDS011;2497;47.410;9.740;2023-02-24T06:29:26;15.20;;;6.87;;
4963;SDS011;2497;47.410;9.740;2023-02-24T06:31:54;26.50;;;7.33;;
4963;SDS011;2497;47.410;9.740;2023-02-24T06:34:24;25.30;;;6.50;;
4963;SDS011;2497;47.410;9.740;2023-02-24T06:36:53;17.63;;;6.60;;
4963;SDS011;2497;47.410;9.740;2023-02-24T06:39:22;25.83;;;6.37;;
4963;SDS011;2497;47.410;9.740;2023-02-24T06:41:50;11.43;;;6.07;;
4963;SDS011;2497;47.410;9.740;2023-02-24T06:44:17;14.00;;;6.40;;
4963;SDS011;2497;47.410;9.740;2023-02-24T06:46:44;12.33;;;6.83;;
4963;SDS011;2497;47.410;9.740;2023-02-24T06:49:12;12.17;;;6.70;;
4963;SDS011;2497;47.410;9.740;2023-02-24T06:51:40;12.13;;;6.97;;
4963;SDS011;2497;47.410;9.740;2023-02-24T06:54:07;18.60;;;7.53;;
4963;SDS011;2497;47.410;9.740;2023-02-24T06:56:35;13.03;;;5.77;;
4963;SDS011;2497;47.410;9.740;2023-02-24T06:59:03;12.20;;;6.60;;
4963;SDS011;2497;47.410;9.740;2023-02-24T07:01:34;18.17;;;7.67;;
4963;SDS011;2497;47.410;9.740;2023-02-24T07:04:09;19.07;;;6.50;;
4963;SDS011;2497;47.410;9.740;2023-02-24T07:06:46;13.73;;;6.30;;
4963;SDS011;2497;47.410;9.740;2023-02-24T07:09:17;16.43;;;5.93;;
4963;SDS011;2497;47.410;9.740;2023-02-24T07:11:46;12.97;;;5.93;;
4963;SDS011;2497;47.410;9.740;2023-02-24T07:14:16;19.97;;;7.37;;
4963;SDS011;2497;47.410;9.740;2023-02-24T07:16:45;16.03;;;7.17;;
4963;SDS011;2497;47.410;9.740;2023-02-24T07:19:16;15.23;;;7.83;;
4963;SDS011;2497;47.410;9.740;2023-02-24T07:21:45;14.33;;;7.10;;
4963;SDS011;2497;47.410;9.740;2023-02-24T07:24:15;20.43;;;7.87;;
4963;SDS011;2497;47.410;9.740;2023-02-24T07:26:53;18.07;;;8.30;;
4963;SDS011;2497;47.410;9.740;2023-02-24T07:29:21;19.73;;;8.90;;
4963;SDS011;2497;47.410;9.740;2023-02-24T07:31:51;27.40;;;10.47;;
4963;SDS011;2497;47.410;9.740;2023-02-24T07:34:21;22.37;;;8.03;;
4963;SDS011;2497;47.410;9.740;2023-02-24T07:36:51;26.13;;;7.77;;
4963;SDS011;2497;47.410;9.740;2023-02-24T07:39:19;15.00;;;8.67;;
4963;SDS011;2497;47.410;9.740;2023-02-24T07:41:48;22.57;;;9.37;;
4963;SDS011;2497;47.410;9.740;2023-02-24T07:44:19;11.00;;;6.30;;
4963;SDS011;2497;47.410;9.740;2023-02-24T07:46:48;16.90;;;6.67;;
4963;SDS011;2497;47.410;9.740;2023-02-24T07:49:15;18.73;;;8.77;;
4963;SDS011;2497;47.410;9.740;2023-02-24T07:51:44;17.20;;;7.73;;
4963;SDS011;2497;47.410;9.740;2023-02-24T07:54:18;21.53;;;9.17;;
4963;SDS011;2497;47.410;9.740;2023-02-24T07:56:46;29.50;;;11.07;;
4963;SDS011;2497;47.410;9.740;2023-02-24T07:59:20;31.90;;;11.53;;
4963;SDS011;2497;47.410;9.740;2023-02-24T08:01:48;27.73;;;12.40;;
4963;SDS011;2497;47.410;9.740;2023-02-24T08:04:16;26.73;;;11.37;;
4963;SDS011;2497;47.410;9.740;2023-02-24T08:06:44;32.57;;;13.77;;
4963;SDS011;2497;47.410;9.740;2023-02-24T08:09:15;29.63;;;13.60;;
4963;SDS011;2497;47.410;9.740;2023-02-24T08:11:47;34.53;;;13.03;;
4963;SDS011;2497;47.410;9.740;2023-02-24T08:14:18;42.53;;;14.00;;
4963;SDS011;2497;47.410;9.740;2023-02-24T08:16:48;28.60;;;13.47;;
4963;SDS011;2497;47.410;9.740;2023-02-24T08:19:17;29.30;;;13.67;;
4963;SDS011;2497;47.410;9.740;2023-02-24T08:21:46;23.50;;;13.00;;
4963;SDS011;2497;47.410;9.740;2023-02-24T08:24:16;22.87;;;12.30;;
4963;SDS011;2497;47.410;9.740;2023-02-24T08:26:46;28.20;;;12.47;;
4963;SDS011;2497;47.410;9.740;2023-02-24T08:29:28;23.37;;;12.67;;
4963;SDS011;2497;47.410;9.740;2023-02-24T08:31:55;26.07;;;12.90;;
4963;SDS011;2497;47.410;9.740;2023-02-24T08:34:23;26.07;;;12.70;;
4963;SDS011;2497;47.410;9.740;2023-02-24T08:36:55;25.47;;;13.20;;
4963;SDS011;2497;47.410;9.740;2023-02-24T08:39:23;32.57;;;15.20;;
4963;SDS011;2497;47.410;9.740;2023-02-24T08:41:55;33.57;;;14.10;;
4963;SDS011;2497;47.410;9.740;2023-02-24T08:44:23;43.80;;;13.83;;
4963;SDS011;2497;47.410;9.740;2023-02-24T08:46:51;30.00;;;15.10;;
4963;SDS011;2497;47.410;9.740;2023-02-24T08:49:20;33.70;;;14.47;;
4963;SDS011;2497;47.410;9.740;2023-02-24T08:51:50;36.57;;;14.83;;
4963;SDS011;2497;47.410;9.740;2023-02-24T08:54:19;30.57;;;13.77;;
4963;SDS011;2497;47.410;9.740;2023-02-24T08:56:51;29.90;;;12.63;;
4963;SDS011;2497;47.410;9.740;2023-02-24T08:59:23;23.53;;;12.33;;
4963;SDS011;2497;47.410;9.740;2023-02-24T09:02:03;34.70;;;12.13;;
4963;SDS011;2497;47.410;9.740;2023-02-24T09:04:49;38.00;;;13.43;;
4963;SDS011;2497;47.410;9.740;2023-02-24T09:07:19;23.10;;;12.13;;
4963;SDS011;2497;47.410;9.740;2023-02-24T09:09:48;37.33;;;13.73;;
4963;SDS011;2497;47.410;9.740;2023-02-24T09:12:20;29.40;;;12.70;;
4963;SDS011;2497;47.410;9.740;2023-02-24T09:14:51;33.63;;;13.50;;
4963;SDS011;2497;47.410;9.740;2023-02-24T09:17:22;34.80;;;14.53;;
4963;SDS011;2497;47.410;9.740;2023-02-24T09:20:14;30.30;;;13.93;;
4963;SDS011;2497;47.410;9.740;2023-02-24T09:23:20;34.87;;;12.47;;
4963;SDS011;2497;47.410;9.740;2023-02-24T09:25:54;22.07;;;11.10;;
4963;SDS011;2497;47.410;9.740;2023-02-24T09:28:22;33.50;;;12.07;;
4963;SDS011;2497;47.410;9.740;2023-02-24T09:30:53;31.03;;;8.57;;
4963;SDS011;2497;47.410;9.740;2023-02-24T09:33:23;20.67;;;10.23;;
4963;SDS011;2497;47.410;9.740;2023-02-24T09:35:53;21.77;;;11.00;;
4963;SDS011;2497;47.410;9.740;2023-02-24T09:38:34;24.40;;;11.00;;
4963;SDS011;2497;47.410;9.740;2023-02-24T09:41:21;20.97;;;11.20;;
4963;SDS011;2497;47.410;9.740;2023-02-24T09:43:58;18.97;;;9.50;;
4963;SDS011;2497;47.410;9.740;2023-02-24T09:46:30;18.03;;;9.10;;
4963;SDS011;2497;47.410;9.740;2023-02-24T09:49:04;17.80;;;9.40;;
4963;SDS011;2497;47.410;9.740;2023-02-24T09:51:39;16.07;;;8.10;;
4963;SDS011;2497;47.410;9.740;2023-02-24T09:54:13;14.37;;;7.50;;
4963;SDS011;2497;47.410;9.740;2023-02-24T09:56:45;20.03;;;6.73;;
4963;SDS011;2497;47.410;9.740;2023-02-24T09:59:33;14.43;;;6.40;;
4963;SDS011;2497;47.410;9.740;2023-02-24T10:02:21;25.30;;;7.70;;
4963;SDS011;2497;47.410;9.740;2023-02-24T10:05:05;16.27;;;6.90;;
4963;SDS011;2497;47.410;9.740;2023-02-24T10:07:41;17.03;;;7.07;;
4963;SDS011;2497;47.410;9.740;2023-02-24T10:10:10;19.10;;;7.60;;
4963;SDS011;2497;47.410;9.740;2023-02-24T10:12:52;20.47;;;7.60;;
4963;SDS011;2497;47.410;9.740;2023-02-24T10:15:26;17.43;;;7.20;;
4963;SDS011;2497;47.410;9.740;2023-02-24T10:18:22;17.07;;;7.00;;
4963;SDS011;2497;47.410;9.740;2023-02-24T10:20:59;22.33;;;6.90;;
4963;SDS011;2497;47.410;9.740;2023-02-24T10:23:34;12.20;;;6.97;;
4963;SDS011;2497;47.410;9.740;2023-02-24T10:26:10;23.80;;;6.53;;
4963;SDS011;2497;47.410;9.740;2023-02-24T10:28:55;15.97;;;6.70;;
4963;SDS011;2497;47.410;9.740;2023-02-24T10:31:33;18.13;;;6.87;;
4963;SDS011;2497;47.410;9.740;2023-02-24T10:34:12;19.63;;;6.80;;
4963;SDS011;2497;47.410;9.740;2023-02-24T10:36:44;21.60;;;7.17;;
4963;SDS011;2497;47.410;9.740;2023-02-24T10:39:14;17.60;;;6.80;;
4963;SDS011;2497;47.410;9.740;2023-02-24T10:41:45;11.70;;;6.10;;
4963;SDS011;2497;47.410;9.740;2023-02-24T10:44:20;22.87;;;7.60;;
4963;SDS011;2497;47.410;9.740;2023-02-24T10:46:58;22.17;;;7.40;;
4963;SDS011;2497;47.410;9.740;2023-02-24T10:49:40;13.63;;;6.60;;
4963;SDS011;2497;47.410;9.740;2023-02-24T10:52:21;19.73;;;8.27;;
4963;SDS011;2497;47.410;9.740;2023-02-24T10:55:21;13.97;;;8.10;;
4963;SDS011;2497;47.410;9.740;2023-02-24T10:58:18;20.00;;;8.50;;
4963;SDS011;2497;47.410;9.740;2023-02-24T11:00:52;22.07;;;8.27;;
4963;SDS011;2497;47.410;9.740;2023-02-24T11:03:37;15.70;;;6.80;;
4963;SDS011;2497;47.410;9.740;2023-02-24T11:06:19;18.73;;;7.33;;
4963;SDS011;2497;47.410;9.740;2023-02-24T11:09:13;12.33;;;6.93;;
4963;SDS011;2497;47.410;9.740;2023-02-24T11:11:57;16.03;;;8.00;;
4963;SDS011;2497;47.410;9.740;2023-02-24T11:14:46;18.60;;;8.40;;
4963;SDS011;2497;47.410;9.740;2023-02-24T11:17:34;16.60;;;6.73;;
4963;SDS011;2497;47.410;9.740;2023-02-24T11:20:03;13.47;;;7.13;;
4963;SDS011;2497;47.410;9.740;2023-02-24T11:22:37;15.40;;;6.70;;
4963;SDS011;2497;47.410;9.740;2023-02-24T11:25:07;11.87;;;6.93;;
4963;SDS011;2497;47.410;9.740;2023-02-24T11:27:43;17.90;;;8.60;;
4963;SDS011;2497;47.410;9.740;2023-02-24T11:30:13;20.87;;;8.17;;
4963;SDS011;2497;47.410;9.740;2023-02-24T11:35:38;17.27;;;8.87;;
4963;SDS011;2497;47.410;9.740;2023-02-24T11:38:23;27.13;;;9.97;;
4963;SDS011;2497;47.410;9.740;2023-02-24T11:41:02;19.73;;;9.97;;
4963;SDS011;2497;47.410;9.740;2023-02-24T11:43:35;27.27;;;11.90;;
4963;SDS011;2497;47.410;9.740;2023-02-24T11:46:06;29.20;;;11.83;;
4963;SDS011;2497;47.410;9.740;2023-02-24T11:48:38;28.10;;;12.27;;
4963;SDS011;2497;47.410;9.740;2023-02-24T11:51:09;26.50;;;12.40;;
4963;SDS011;2497;47.410;9.740;2023-02-24T11:53:41;19.00;;;11.83;;
4963;SDS011;2497;47.410;9.740;2023-02-24T11:56:15;24.97;;;13.17;;
4963;SDS011;2497;47.410;9.740;2023-02-24T11:58:48;26.33;;;12.47;;
4963;SDS011;2497;47.410;9.740;2023-02-24T12:01:20;30.90;;;12.87;;
4963;SDS011;2497;47.410;9.740;2023-02-24T12:03:55;25.90;;;12.50;;
4963;SDS011;2497;47.410;9.740;2023-02-24T12:06:32;27.43;;;11.90;;
4963;SDS011;2497;47.410;9.740;2023-02-24T12:09:07;23.80;;;13.20;;
4963;SDS011;2497;47.410;9.740;2023-02-24T12:11:41;24.80;;;11.70;;
4963;SDS011;2497;47.410;9.740;2023-02-24T12:14:18;23.53;;;12.10;;
4963;SDS011;2497;47.410;9.740;2023-02-24T12:16:53;37.47;;;13.63;;
4963;SDS011;2497;47.410;9.740;2023-02-24T12:19:26;23.40;;;12.33;;
4963;SDS011;2497;47.410;9.740;2023-02-24T12:22:00;26.60;;;12.93;;
4963;SDS011;2497;47.410;9.740;2023-02-24T12:24:33;23.07;;;12.27;;
4963;SDS011;2497;47.410;9.740;2023-02-24T12:27:03;29.30;;;13.00;;
4963;SDS011;2497;47.410;9.740;2023-02-24T12:29:46;30.60;;;13.50;;
4963;SDS011;2497;47.410;9.740;2023-02-24T12:32:23;27.07;;;14.17;;
4963;SDS011;2497;47.410;9.740;2023-02-24T12:35:00;22.30;;;13.10;;
4963;SDS011;2497;47.410;9.740;2023-02-24T12:37:44;27.27;;;12.03;;
4963;SDS011;2497;47.410;9.740;2023-02-24T12:40:23;26.63;;;12.20;;
4963;SDS011;2497;47.410;9.740;2023-02-24T12:43:01;24.63;;;11.00;;
4963;SDS011;2497;47.410;9.740;2023-02-24T12:45:42;22.60;;;11.50;;
4963;SDS011;2497;47.410;9.740;2023-02-24T12:48:22;27.70;;;12.53;;
4963;SDS011;2497;47.410;9.740;2023-02-24T12:51:03;30.07;;;13.73;;
4963;SDS011;2497;47.410;9.740;2023-02-24T12:53:34;21.77;;;12.20;;
4963;SDS011;2497;47.410;9.740;2023-02-24T12:56:09;28.33;;;12.53;;
4963;SDS011;2497;47.410;9.740;2023-02-24T12:58:43;21.90;;;10.70;;
4963;SDS011;2497;47.410;9.740;2023-02-24T13:01:15;22.50;;;12.10;;
4963;SDS011;2497;47.410;9.740;2023-02-24T13:03:53;26.13;;;10.23;;
4963;SDS011;2497;47.410;9.740;2023-02-24T13:06:27;21.77;;;11.10;;
4963;SDS011;2497;47.410;9.740;2023-02-24T13:09:04;24.00;;;11.13;;
4963;SDS011;2497;47.410;9.740;2023-02-24T13:11:39;22.73;;;10.57;;
4963;SDS011;2497;47.410;9.740;2023-02-24T13:14:13;26.30;;;11.90;;
4963;SDS011;2497;47.410;9.740;2023-02-24T13:16:47;24.00;;;11.03;;
4963;SDS011;2497;47.410;9.740;2023-02-24T13:19:18;21.37;;;11.87;;
4963;SDS011;2497;47.410;9.740;2023-02-24T13:21:54;31.53;;;11.37;;
4963;SDS011;2497;47.410;9.740;2023-02-24T13:24:23;28.27;;;12.03;;
4963;SDS011;2497;47.410;9.740;2023-02-24T13:26:53;24.10;;;11.50;;
4963;SDS011;2497;47.410;9.740;2023-02-24T13:29:40;27.63;;;12.10;;
4963;SDS011;2497;47.410;9.740;2023-02-24T13:32:20;23.03;;;10.97;;
4963;SDS011;2497;47.410;9.740;2023-02-24T13:34:56;23.73;;;11.90;;
4963;SDS011;2497;47.410;9.740;2023-02-24T13:37:25;24.53;;;12.03;;
4963;SDS011;2497;47.410;9.740;2023-02-24T13:39:58;25.07;;;11.90;;
4963;SDS011;2497;47.410;9.740;2023-02-24T13:42:32;24.60;;;11.00;;
4963;SDS011;2497;47.410;9.740;2023-02-24T13:45:04;20.60;;;10.40;;
4963;SDS011;2497;47.410;9.740;2023-02-24T13:47:53;27.63;;;11.40;;
4963;SDS011;2497;47.410;9.740;2023-02-24T13:50:37;23.43;;;11.00;;
4963;SDS011;2497;47.410;9.740;2023-02-24T13:53:24;27.63;;;13.90;;
4963;SDS011;2497;47.410;9.740;2023-02-24T13:56:02;37.47;;;16.20;;
4963;SDS011;2497;47.410;9.740;2023-02-24T13:59:04;41.13;;;18.60;;
4963;SDS011;2497;47.410;9.740;2023-02-24T14:01:50;48.03;;;19.80;;
4963;SDS011;2497;47.410;9.740;2023-02-24T14:04:24;41.47;;;21.10;;
4963;SDS011;2497;47.410;9.740;2023-02-24T14:06:54;52.27;;;22.87;;
4963;SDS011;2497;47.410;9.740;2023-02-24T14:09:25;50.53;;;23.67;;
4963;SDS011;2497;47.410;9.740;2023-02-24T14:11:56;58.90;;;26.83;;
4963;SDS011;2497;47.410;9.740;2023-02-24T14:14:27;68.40;;;31.27;;
4963;SDS011;2497;47.410;9.740;2023-02-24T14:16:55;66.43;;;27.23;;
4963;SDS011;2497;47.410;9.740;2023-02-24T14:19:23;64.53;;;28.47;;
4963;SDS011;2497;47.410;9.740;2023-02-24T14:21:51;54.17;;;26.67;;
4963;SDS011;2497;47.410;9.740;2023-02-24T14:24:20;55.67;;;25.90;;
4963;SDS011;2497;47.410;9.740;2023-02-24T14:26:49;54.07;;;24.73;;
4963;SDS011;2497;47.410;9.740;2023-02-24T14:29:18;53.97;;;24.17;;
4963;SDS011;2497;47.410;9.740;2023-02-24T14:31:49;72.70;;;25.87;;
4963;SDS011;2497;47.410;9.740;2023-02-24T14:34:19;46.27;;;21.97;;
4963;SDS011;2497;47.410;9.740;2023-02-24T14:36:49;49.47;;;22.40;;
4963;SDS011;2497;47.410;9.740;2023-02-24T14:39:19;59.63;;;21.47;;
4963;SDS011;2497;47.410;9.740;2023-02-24T14:41:48;42.10;;;20.57;;
4963;SDS011;2497;47.410;9.740;2023-02-24T14:44:17;39.30;;;19.07;;
4963;SDS011;2497;47.410;9.740;2023-02-24T14:46:51;48.97;;;19.77;;
4963;SDS011;2497;47.410;9.740;2023-02-24T14:49:21;48.33;;;20.03;;
4963;SDS011;2497;47.410;9.740;2023-02-24T14:51:52;47.60;;;17.97;;
4963;SDS011;2497;47.410;9.740;2023-02-24T14:54:26;46.70;;;16.60;;
4963;SDS011;2497;47.410;9.740;2023-02-24T14:57:00;37.00;;;15.10;;
4963;SDS011;2497;47.410;9.740;2023-02-24T14:59:28;35.47;;;16.13;;
4963;SDS011;2497;47.410;9.740;2023-02-24T15:02:01;39.43;;;16.27;;
4963;SDS011;2497;47.410;9.740;2023-02-24T15:04:37;35.67;;;13.90;;
4963;SDS011;2497;47.410;9.740;2023-02-24T15:07:13;31.13;;;12.67;;
4963;SDS011;2497;47.410;9.740;2023-02-24T15:09:43;32.20;;;12.30;;
4963;SDS011;2497;47.410;9.740;2023-02-24T15:12:18;36.87;;;13.20;;
4963;SDS011;2497;47.410;9.740;2023-02-24T15:14:49;28.50;;;11.13;;
4963;SDS011;2497;47.410;9.740;2023-02-24T15:17:20;24.17;;;8.73;;
4963;SDS011;2497;47.410;9.740;2023-02-24T15:19:48;22.73;;;10.10;;
4963;SDS011;2497;47.410;9.740;2023-02-24T15:22:23;23.50;;;9.77;;
4963;SDS011;2497;47.410;9.740;2023-02-24T15:24:53;21.43;;;9.80;;
4963;SDS011;2497;47.410;9.740;2023-02-24T15:27:23;23.73;;;10.20;;
4963;SDS011;2497;47.410;9.740;2023-02-24T15:29:56;25.90;;;10.10;;
4963;SDS011;2497;47.410;9.740;2023-02-24T15:32:30;23.90;;;9.73;;
4963;SDS011;2497;47.410;9.740;2023-02-24T15:35:01;23.90;;;9.33;;
4963;SDS011;2497;47.410;9.740;2023-02-24T15:37:32;31.23;;;10.83;;
4963;SDS011;2497;47.410;9.740;2023-02-24T15:40:10;35.17;;;10.90;;
4963;SDS011;2497;47.410;9.740;2023-02-24T15:42:48;28.37;;;11.40;;
4963;SDS011;2497;47.410;9.740;2023-02-24T15:45:22;40.00;;;11.20;;